sensor_id;sensor_type;location;lat;lon;timestamp;temperature;humidity
18581;DHT22;9420;50.876;7.012;2024-03-25T00:00:42;6.03;84.49
18581;DHT22;9420;50.876;7.012;2024-03-25T00:03:09;6.13;84.35
18581;DHT22;9420;50.876;7.012;2024-03-25T00:05:36;6.06;84.48
18581;DHT22;9420;50.876;7.012;2024-03-25T00:08:02;6.08;84.67
18581;DHT22;9420;50.876;7.012;2024-03-25T00:10:28;6.07;84.53
18581;DHT22;9420;50.876;7.012;2024-03-25T00:12:54;6.06;84.45
18581;DHT22;9420;50.876;7.012;2024-03-25T00:15:22;6.11;84.54
18581;DHT22;9420;50.876;7.012;2024-03-25T00:17:49;6.10;84.31
18581;DHT22;9420;50.876;7.012;2024-03-25T00:20:17;6.07;84.30
18581;DHT22;9420;50.876;7.012;2024-03-25T00:22:43;6.10;84.19
18581;DHT22;9420;50.876;7.012;2024-03-25T00:25:09;6.10;84.27
18581;DHT22;9420;50.876;7.012;2024-03-25T00:27:35;6.01;84.29
18581;DHT22;9420;50.876;7.012;2024-03-25T00:30:02;5.97;84.46
18581;DHT22;9420;50.876;7.012;2024-03-25T00:32:28;5.94;84.62
18581;DHT22;9420;50.876;7.012;2024-03-25T00:34:54;5.98;84.59
18581;DHT22;9420;50.876;7.012;2024-03-25T00:37:21;5.89;84.77
18581;DHT22;9420;50.876;7.012;2024-03-25T00:39:49;5.86;84.97
18581;DHT22;9420;50.876;7.012;2024-03-25T00:42:15;5.80;85.04
18581;DHT22;9420;50.876;7.012;2024-03-25T00:44:41;5.67;85.48
18581;DHT22;9420;50.876;7.012;2024-03-25T00:47:07;5.69;85.49
18581;DHT22;9420;50.876;7.012;2024-03-25T00:49:33;5.70;85.31
18581;DHT22;9420;50.876;7.012;2024-03-25T00:52:00;5.56;85.72
18581;DHT22;9420;50.876;7.012;2024-03-25T00:54:28;5.60;85.67
18581;DHT22;9420;50.876;7.012;2024-03-25T00:56:54;5.55;85.95
18581;DHT22;9420;50.876;7.012;2024-03-25T00:59:22;5.49;85.99
18581;DHT22;9420;50.876;7.012;2024-03-25T01:01:47;5.46;86.07
18581;DHT22;9420;50.876;7.012;2024-03-25T01:04:14;5.36;86.52
18581;DHT22;9420;50.876;7.012;2024-03-25T01:06:40;5.48;86.21
18581;DHT22;9420;50.876;7.012;2024-03-25T01:09:06;5.53;86.08
18581;DHT22;9420;50.876;7.012;2024-03-25T01:11:34;5.55;85.89
18581;DHT22;9420;50.876;7.012;2024-03-25T01:14:00;5.56;85.95
18581;DHT22;9420;50.876;7.012;2024-03-25T01:16:26;5.65;85.75
18581;DHT22;9420;50.876;7.012;2024-03-25T01:18:53;5.67;85.53
18581;DHT22;9420;50.876;7.012;2024-03-25T01:21:18;5.62;85.60
18581;DHT22;9420;50.876;7.012;2024-03-25T01:23:45;5.60;85.78
18581;DHT22;9420;50.876;7.012;2024-03-25T01:26:11;5.58;86.01
18581;DHT22;9420;50.876;7.012;2024-03-25T01:28:39;5.70;85.34
18581;DHT22;9420;50.876;7.012;2024-03-25T01:31:05;5.81;85.02
18581;DHT22;9420;50.876;7.012;2024-03-25T01:33:31;5.77;85.19
18581;DHT22;9420;50.876;7.012;2024-03-25T01:35:57;5.83;84.87
18581;DHT22;9420;50.876;7.012;2024-03-25T01:38:23;5.86;84.76
18581;DHT22;9420;50.876;7.012;2024-03-25T01:40:49;5.81;84.99
18581;DHT22;9420;50.876;7.012;2024-03-25T01:43:15;5.73;85.06
18581;DHT22;9420;50.876;7.012;2024-03-25T01:45:43;5.74;85.01
18581;DHT22;9420;50.876;7.012;2024-03-25T01:48:10;5.70;85.09
18581;DHT22;9420;50.876;7.012;2024-03-25T01:50:40;5.66;85.12
18581;DHT22;9420;50.876;7.012;2024-03-25T01:53:08;5.66;84.92
18581;DHT22;9420;50.876;7.012;2024-03-25T01:55:35;5.67;84.99
18581;DHT22;9420;50.876;7.012;2024-03-25T01:58:01;5.63;84.78
18581;DHT22;9420;50.876;7.012;2024-03-25T02:00:27;5.67;84.85
18581;DHT22;9420;50.876;7.012;2024-03-25T02:02:56;5.59;84.65
18581;DHT22;9420;50.876;7.012;2024-03-25T02:05:22;5.48;85.09
18581;DHT22;9420;50.876;7.012;2024-03-25T02:07:49;5.45;85.15
18581;DHT22;9420;50.876;7.012;2024-03-25T02:10:15;5.40;85.22
18581;DHT22;9420;50.876;7.012;2024-03-25T02:12:42;5.46;84.96
18581;DHT22;9420;50.876;7.012;2024-03-25T02:15:09;5.35;85.22
18581;DHT22;9420;50.876;7.012;2024-03-25T02:17:36;5.39;85.40
18581;DHT22;9420;50.876;7.012;2024-03-25T02:20:04;5.43;85.01
18581;DHT22;9420;50.876;7.012;2024-03-25T02:22:31;5.39;85.30
18581;DHT22;9420;50.876;7.012;2024-03-25T02:24:58;5.42;84.97
18581;DHT22;9420;50.876;7.012;2024-03-25T02:27:27;5.36;85.24
18581;DHT22;9420;50.876;7.012;2024-03-25T02:29:53;5.38;85.26
18581;DHT22;9420;50.876;7.012;2024-03-25T02:32:20;5.36;85.18
18581;DHT22;9420;50.876;7.012;2024-03-25T02:34:50;5.34;85.36
18581;DHT22;9420;50.876;7.012;2024-03-25T02:37:18;5.31;85.37
18581;DHT22;9420;50.876;7.012;2024-03-25T02:39:44;5.19;85.75
18581;DHT22;9420;50.876;7.012;2024-03-25T02:42:11;5.21;85.62
18581;DHT22;9420;50.876;7.012;2024-03-25T02:44:38;5.19;85.49
18581;DHT22;9420;50.876;7.012;2024-03-25T02:47:08;5.15;85.65
18581;DHT22;9420;50.876;7.012;2024-03-25T02:49:34;5.14;85.63
18581;DHT22;9420;50.876;7.012;2024-03-25T02:52:01;5.08;85.89
18581;DHT22;9420;50.876;7.012;2024-03-25T02:54:27;4.97;86.08
18581;DHT22;9420;50.876;7.012;2024-03-25T02:56:54;5.07;85.97
18581;DHT22;9420;50.876;7.012;2024-03-25T02:59:19;4.97;86.16
18581;DHT22;9420;50.876;7.012;2024-03-25T03:01:47;4.92;86.40
18581;DHT22;9420;50.876;7.012;2024-03-25T03:04:13;5.00;86.41
18581;DHT22;9420;50.876;7.012;2024-03-25T03:06:40;5.00;86.52
18581;DHT22;9420;50.876;7.012;2024-03-25T03:09:05;5.01;86.29
18581;DHT22;9420;50.876;7.012;2024-03-25T03:11:32;5.05;86.40
18581;DHT22;9420;50.876;7.012;2024-03-25T03:13:57;5.01;86.35
18581;DHT22;9420;50.876;7.012;2024-03-25T03:16:24;5.01;86.30
18581;DHT22;9420;50.876;7.012;2024-03-25T03:18:51;4.87;86.82
18581;DHT22;9420;50.876;7.012;2024-03-25T03:21:18;4.85;86.85
18581;DHT22;9420;50.876;7.012;2024-03-25T03:23:43;4.92;86.52
18581;DHT22;9420;50.876;7.012;2024-03-25T03:26:10;4.95;86.28
18581;DHT22;9420;50.876;7.012;2024-03-25T03:28:35;4.91;86.39
18581;DHT22;9420;50.876;7.012;2024-03-25T03:31:02;4.87;86.59
18581;DHT22;9420;50.876;7.012;2024-03-25T03:33:27;4.94;86.23
18581;DHT22;9420;50.876;7.012;2024-03-25T03:35:58;4.94;86.17
18581;DHT22;9420;50.876;7.012;2024-03-25T03:38:23;4.94;86.02
18581;DHT22;9420;50.876;7.012;2024-03-25T03:40:56;5.01;85.78
18581;DHT22;9420;50.876;7.012;2024-03-25T03:43:22;4.90;86.17
18581;DHT22;9420;50.876;7.012;2024-03-25T03:45:48;4.97;86.00
18581;DHT22;9420;50.876;7.012;2024-03-25T03:48:14;5.01;85.76
18581;DHT22;9420;50.876;7.012;2024-03-25T03:50:41;5.01;85.70
18581;DHT22;9420;50.876;7.012;2024-03-25T03:53:08;4.94;85.75
18581;DHT22;9420;50.876;7.012;2024-03-25T03:55:35;4.90;85.96
18581;DHT22;9420;50.876;7.012;2024-03-25T03:58:01;4.84;86.17
18581;DHT22;9420;50.876;7.012;2024-03-25T04:00:28;4.80;86.06
18581;DHT22;9420;50.876;7.012;2024-03-25T04:02:53;4.80;86.07
18581;DHT22;9420;50.876;7.012;2024-03-25T04:05:20;4.79;86.05
18581;DHT22;9420;50.876;7.012;2024-03-25T04:07:45;4.60;86.48
18581;DHT22;9420;50.876;7.012;2024-03-25T04:10:13;4.57;86.48
18581;DHT22;9420;50.876;7.012;2024-03-25T04:12:39;4.42;86.99
18581;DHT22;9420;50.876;7.012;2024-03-25T04:15:07;4.38;86.94
18581;DHT22;9420;50.876;7.012;2024-03-25T04:17:33;4.31;87.04
18581;DHT22;9420;50.876;7.012;2024-03-25T04:19:59;4.29;87.09
18581;DHT22;9420;50.876;7.012;2024-03-25T04:22:25;4.29;87.00
18581;DHT22;9420;50.876;7.012;2024-03-25T04:24:52;4.29;87.09
18581;DHT22;9420;50.876;7.012;2024-03-25T04:27:19;4.19;87.22
18581;DHT22;9420;50.876;7.012;2024-03-25T04:29:47;4.08;87.51
18581;DHT22;9420;50.876;7.012;2024-03-25T04:32:13;4.08;87.51
18581;DHT22;9420;50.876;7.012;2024-03-25T04:34:39;4.04;87.58
18581;DHT22;9420;50.876;7.012;2024-03-25T04:37:05;3.97;87.78
18581;DHT22;9420;50.876;7.012;2024-03-25T04:39:31;3.94;87.93
18581;DHT22;9420;50.876;7.012;2024-03-25T04:41:56;3.95;87.95
18581;DHT22;9420;50.876;7.012;2024-03-25T04:44:23;3.90;87.93
18581;DHT22;9420;50.876;7.012;2024-03-25T04:46:49;3.87;87.96
18581;DHT22;9420;50.876;7.012;2024-03-25T04:49:15;3.88;87.99
18581;DHT22;9420;50.876;7.012;2024-03-25T04:51:40;3.87;88.01
18581;DHT22;9420;50.876;7.012;2024-03-25T04:54:06;3.84;88.17
18581;DHT22;9420;50.876;7.012;2024-03-25T04:56:32;3.81;88.08
18581;DHT22;9420;50.876;7.012;2024-03-25T04:58:58;3.84;87.94
18581;DHT22;9420;50.876;7.012;2024-03-25T05:01:26;3.78;88.09
18581;DHT22;9420;50.876;7.012;2024-03-25T05:03:51;3.69;88.17
18581;DHT22;9420;50.876;7.012;2024-03-25T05:06:17;3.71;88.21
18581;DHT22;9420;50.876;7.012;2024-03-25T05:08:43;3.73;88.06
18581;DHT22;9420;50.876;7.012;2024-03-25T05:11:08;3.70;87.96
18581;DHT22;9420;50.876;7.012;2024-03-25T05:13:34;3.62;88.01
18581;DHT22;9420;50.876;7.012;2024-03-25T05:16:00;3.53;88.25
18581;DHT22;9420;50.876;7.012;2024-03-25T05:18:27;3.46;88.27
18581;DHT22;9420;50.876;7.012;2024-03-25T05:20:54;3.46;88.33
18581;DHT22;9420;50.876;7.012;2024-03-25T05:23:19;3.47;88.40
18581;DHT22;9420;50.876;7.012;2024-03-25T05:25:45;3.37;88.41
18581;DHT22;9420;50.876;7.012;2024-03-25T05:28:11;3.39;88.32
18581;DHT22;9420;50.876;7.012;2024-03-25T05:30:36;3.44;88.33
18581;DHT22;9420;50.876;7.012;2024-03-25T05:33:03;3.43;88.34
18581;DHT22;9420;50.876;7.012;2024-03-25T05:35:30;3.50;88.17
18581;DHT22;9420;50.876;7.012;2024-03-25T05:37:56;3.43;88.21
18581;DHT22;9420;50.876;7.012;2024-03-25T05:40:21;3.37;88.23
18581;DHT22;9420;50.876;7.012;2024-03-25T05:42:47;3.50;88.16
18581;DHT22;9420;50.876;7.012;2024-03-25T05:45:13;3.50;87.90
18581;DHT22;9420;50.876;7.012;2024-03-25T05:47:38;3.54;87.87
18581;DHT22;9420;50.876;7.012;2024-03-25T05:50:05;3.59;87.87
18581;DHT22;9420;50.876;7.012;2024-03-25T05:52:32;3.57;87.71
18581;DHT22;9420;50.876;7.012;2024-03-25T05:54:58;3.60;87.60
18581;DHT22;9420;50.876;7.012;2024-03-25T05:57:24;3.53;87.72
18581;DHT22;9420;50.876;7.012;2024-03-25T05:59:50;3.59;87.71
18581;DHT22;9420;50.876;7.012;2024-03-25T06:02:15;3.66;87.46
18581;DHT22;9420;50.876;7.012;2024-03-25T06:04:41;3.73;87.27
18581;DHT22;9420;50.876;7.012;2024-03-25T06:07:07;3.70;87.04
18581;DHT22;9420;50.876;7.012;2024-03-25T06:09:34;3.71;87.20
18581;DHT22;9420;50.876;7.012;2024-03-25T06:12:00;3.74;87.19
18581;DHT22;9420;50.876;7.012;2024-03-25T06:14:25;3.67;87.44
18581;DHT22;9420;50.876;7.012;2024-03-25T06:16:51;3.87;86.97
18581;DHT22;9420;50.876;7.012;2024-03-25T06:19:17;3.94;87.02
18581;DHT22;9420;50.876;7.012;2024-03-25T06:21:42;4.09;86.84
18581;DHT22;9420;50.876;7.012;2024-03-25T06:24:08;4.21;86.64
18581;DHT22;9420;50.876;7.012;2024-03-25T06:26:35;4.08;86.98
18581;DHT22;9420;50.876;7.012;2024-03-25T06:29:01;4.29;86.70
18581;DHT22;9420;50.876;7.012;2024-03-25T06:31:26;4.56;86.05
18581;DHT22;9420;50.876;7.012;2024-03-25T06:34:10;4.52;86.18
18581;DHT22;9420;50.876;7.012;2024-03-25T06:36:45;4.63;85.97
18581;DHT22;9420;50.876;7.012;2024-03-25T06:39:11;4.71;85.75
18581;DHT22;9420;50.876;7.012;2024-03-25T06:41:38;4.84;85.49
18581;DHT22;9420;50.876;7.012;2024-03-25T06:44:04;4.90;85.11
18581;DHT22;9420;50.876;7.012;2024-03-25T06:46:30;5.02;85.09
18581;DHT22;9420;50.876;7.012;2024-03-25T06:48:55;5.18;84.77
18581;DHT22;9420;50.876;7.012;2024-03-25T06:51:22;5.24;84.70
18581;DHT22;9420;50.876;7.012;2024-03-25T06:53:48;5.35;84.98
18581;DHT22;9420;50.876;7.012;2024-03-25T06:56:14;5.43;84.14
18581;DHT22;9420;50.876;7.012;2024-03-25T06:58:41;5.66;83.48
18581;DHT22;9420;50.876;7.012;2024-03-25T07:01:08;5.79;83.85
18581;DHT22;9420;50.876;7.012;2024-03-25T07:03:34;5.98;82.80
18581;DHT22;9420;50.876;7.012;2024-03-25T07:06:01;6.00;82.89
18581;DHT22;9420;50.876;7.012;2024-03-25T07:08:27;6.13;82.67
18581;DHT22;9420;50.876;7.012;2024-03-25T07:10:53;6.14;82.53
18581;DHT22;9420;50.876;7.012;2024-03-25T07:13:19;6.10;82.85
18581;DHT22;9420;50.876;7.012;2024-03-25T07:15:46;6.10;82.42
18581;DHT22;9420;50.876;7.012;2024-03-25T07:18:12;6.11;83.29
18581;DHT22;9420;50.876;7.012;2024-03-25T07:20:38;6.28;81.93
18581;DHT22;9420;50.876;7.012;2024-03-25T07:23:04;6.46;81.48
18581;DHT22;9420;50.876;7.012;2024-03-25T07:25:29;6.53;81.71
18581;DHT22;9420;50.876;7.012;2024-03-25T07:27:56;6.71;81.27
18581;DHT22;9420;50.876;7.012;2024-03-25T07:30:22;6.80;80.99
18581;DHT22;9420;50.876;7.012;2024-03-25T07:32:49;7.11;80.45
18581;DHT22;9420;50.876;7.012;2024-03-25T07:35:16;7.17;80.07
18581;DHT22;9420;50.876;7.012;2024-03-25T07:37:42;7.32;79.78
18581;DHT22;9420;50.876;7.012;2024-03-25T07:40:09;7.44;80.25
18581;DHT22;9420;50.876;7.012;2024-03-25T07:42:35;7.52;78.43
18581;DHT22;9420;50.876;7.012;2024-03-25T07:45:01;7.68;78.67
18581;DHT22;9420;50.876;7.012;2024-03-25T07:47:26;7.68;77.55
18581;DHT22;9420;50.876;7.012;2024-03-25T07:49:53;7.62;79.03
18581;DHT22;9420;50.876;7.012;2024-03-25T07:52:19;7.93;78.54
18581;DHT22;9420;50.876;7.012;2024-03-25T07:54:45;8.09;77.00
18581;DHT22;9420;50.876;7.012;2024-03-25T07:57:11;7.87;77.82
18581;DHT22;9420;50.876;7.012;2024-03-25T07:59:36;7.68;77.80
18581;DHT22;9420;50.876;7.012;2024-03-25T08:02:02;8.13;77.63
18581;DHT22;9420;50.876;7.012;2024-03-25T08:04:28;8.14;77.03
18581;DHT22;9420;50.876;7.012;2024-03-25T08:06:56;8.26;76.39
18581;DHT22;9420;50.876;7.012;2024-03-25T08:09:22;8.21;77.64
18581;DHT22;9420;50.876;7.012;2024-03-25T08:11:47;8.13;76.84
18581;DHT22;9420;50.876;7.012;2024-03-25T08:14:13;8.47;76.30
18581;DHT22;9420;50.876;7.012;2024-03-25T08:16:43;8.44;76.55
18581;DHT22;9420;50.876;7.012;2024-03-25T08:19:08;8.36;77.96
18581;DHT22;9420;50.876;7.012;2024-03-25T08:21:34;8.62;76.83
18581;DHT22;9420;50.876;7.012;2024-03-25T08:24:02;8.47;75.43
18581;DHT22;9420;50.876;7.012;2024-03-25T08:26:29;8.88;75.80
18581;DHT22;9420;50.876;7.012;2024-03-25T08:28:55;8.73;74.88
18581;DHT22;9420;50.876;7.012;2024-03-25T08:31:21;8.55;75.80
18581;DHT22;9420;50.876;7.012;2024-03-25T08:33:46;8.78;75.01
18581;DHT22;9420;50.876;7.012;2024-03-25T08:36:12;8.82;75.03
18581;DHT22;9420;50.876;7.012;2024-03-25T08:38:38;8.75;75.13
18581;DHT22;9420;50.876;7.012;2024-03-25T08:41:05;8.83;76.05
18581;DHT22;9420;50.876;7.012;2024-03-25T08:43:31;8.85;75.70
18581;DHT22;9420;50.876;7.012;2024-03-25T08:45:56;9.16;75.16
18581;DHT22;9420;50.876;7.012;2024-03-25T08:48:22;8.92;74.83
18581;DHT22;9420;50.876;7.012;2024-03-25T08:50:49;9.12;74.68
18581;DHT22;9420;50.876;7.012;2024-03-25T08:53:14;9.39;72.63
18581;DHT22;9420;50.876;7.012;2024-03-25T08:55:44;9.10;74.85
18581;DHT22;9420;50.876;7.012;2024-03-25T08:58:12;9.03;73.34
18581;DHT22;9420;50.876;7.012;2024-03-25T09:00:38;8.58;73.84
18581;DHT22;9420;50.876;7.012;2024-03-25T09:03:04;8.68;73.44
18581;DHT22;9420;50.876;7.012;2024-03-25T09:05:29;8.86;74.29
18581;DHT22;9420;50.876;7.012;2024-03-25T09:07:55;9.08;73.31
18581;DHT22;9420;50.876;7.012;2024-03-25T09:10:21;9.34;75.10
18581;DHT22;9420;50.876;7.012;2024-03-25T09:13:05;9.26;73.00
18581;DHT22;9420;50.876;7.012;2024-03-25T09:15:32;9.51;72.79
18581;DHT22;9420;50.876;7.012;2024-03-25T09:17:58;9.78;73.45
18581;DHT22;9420;50.876;7.012;2024-03-25T09:20:24;9.61;73.54
18581;DHT22;9420;50.876;7.012;2024-03-25T09:22:49;9.73;70.15
18581;DHT22;9420;50.876;7.012;2024-03-25T09:25:15;9.65;69.72
18581;DHT22;9420;50.876;7.012;2024-03-25T09:27:45;9.48;71.24
18581;DHT22;9420;50.876;7.012;2024-03-25T09:30:12;9.94;71.04
18581;DHT22;9420;50.876;7.012;2024-03-25T09:32:39;10.08;70.82
18581;DHT22;9420;50.876;7.012;2024-03-25T09:35:05;10.03;69.59
18581;DHT22;9420;50.876;7.012;2024-03-25T09:37:30;10.42;67.93
18581;DHT22;9420;50.876;7.012;2024-03-25T09:39:56;10.05;68.37
18581;DHT22;9420;50.876;7.012;2024-03-25T09:42:25;10.23;70.13
18581;DHT22;9420;50.876;7.012;2024-03-25T09:44:53;10.12;70.85
18581;DHT22;9420;50.876;7.012;2024-03-25T09:47:19;10.42;69.52
18581;DHT22;9420;50.876;7.012;2024-03-25T09:49:47;10.33;69.58
18581;DHT22;9420;50.876;7.012;2024-03-25T09:52:14;10.74;69.36
18581;DHT22;9420;50.876;7.012;2024-03-25T09:54:40;10.95;69.02
18581;DHT22;9420;50.876;7.012;2024-03-25T09:57:07;10.63;67.90
18581;DHT22;9420;50.876;7.012;2024-03-25T09:59:34;10.35;67.69
18581;DHT22;9420;50.876;7.012;2024-03-25T10:02:01;10.74;68.02
18581;DHT22;9420;50.876;7.012;2024-03-25T10:04:27;10.74;66.18
18581;DHT22;9420;50.876;7.012;2024-03-25T10:06:54;10.78;69.89
18581;DHT22;9420;50.876;7.012;2024-03-25T10:09:20;11.19;68.69
18581;DHT22;9420;50.876;7.012;2024-03-25T10:11:48;10.77;64.40
18581;DHT22;9420;50.876;7.012;2024-03-25T10:14:15;10.35;67.57
18581;DHT22;9420;50.876;7.012;2024-03-25T10:16:42;10.95;68.36
18581;DHT22;9420;50.876;7.012;2024-03-25T10:19:08;11.42;65.66
18581;DHT22;9420;50.876;7.012;2024-03-25T10:21:33;11.73;68.11
18581;DHT22;9420;50.876;7.012;2024-03-25T10:24:01;11.76;64.40
18581;DHT22;9420;50.876;7.012;2024-03-25T10:26:27;11.87;65.28
18581;DHT22;9420;50.876;7.012;2024-03-25T10:29:00;12.16;61.77
18581;DHT22;9420;50.876;7.012;2024-03-25T10:31:31;12.52;64.23
18581;DHT22;9420;50.876;7.012;2024-03-25T10:33:59;12.72;64.61
18581;DHT22;9420;50.876;7.012;2024-03-25T10:36:26;12.97;64.26
18581;DHT22;9420;50.876;7.012;2024-03-25T10:38:55;13.24;62.86
18581;DHT22;9420;50.876;7.012;2024-03-25T10:41:22;13.27;63.58
18581;DHT22;9420;50.876;7.012;2024-03-25T10:43:49;13.48;59.90
18581;DHT22;9420;50.876;7.012;2024-03-25T10:46:19;13.51;57.88
18581;DHT22;9420;50.876;7.012;2024-03-25T10:48:54;13.55;59.05
18581;DHT22;9420;50.876;7.012;2024-03-25T10:51:24;14.23;60.34
18581;DHT22;9420;50.876;7.012;2024-03-25T10:53:51;14.91;59.43
18581;DHT22;9420;50.876;7.012;2024-03-25T10:56:21;15.38;56.79
18581;DHT22;9420;50.876;7.012;2024-03-25T10:58:48;14.72;57.48
18581;DHT22;9420;50.876;7.012;2024-03-25T11:01:16;15.05;56.09
18581;DHT22;9420;50.876;7.012;2024-03-25T11:03:43;16.91;50.86
18581;DHT22;9420;50.876;7.012;2024-03-25T11:06:09;16.66;51.67
18581;DHT22;9420;50.876;7.012;2024-03-25T11:08:36;16.67;49.90
18581;DHT22;9420;50.876;7.012;2024-03-25T11:11:02;16.96;52.28
18581;DHT22;9420;50.876;7.012;2024-03-25T11:13:31;17.24;49.55
18581;DHT22;9420;50.876;7.012;2024-03-25T11:15:57;16.80;51.41
18581;DHT22;9420;50.876;7.012;2024-03-25T11:18:24;17.75;49.66
18581;DHT22;9420;50.876;7.012;2024-03-25T11:21:01;17.04;50.87
18581;DHT22;9420;50.876;7.012;2024-03-25T11:23:35;17.11;52.03
18581;DHT22;9420;50.876;7.012;2024-03-25T11:26:02;17.11;50.41
18581;DHT22;9420;50.876;7.012;2024-03-25T11:28:29;16.70;48.78
18581;DHT22;9420;50.876;7.012;2024-03-25T11:30:56;16.05;49.42
18581;DHT22;9420;50.876;7.012;2024-03-25T11:33:22;18.98;46.83
18581;DHT22;9420;50.876;7.012;2024-03-25T11:35:48;18.27;45.53
18581;DHT22;9420;50.876;7.012;2024-03-25T11:38:14;19.15;44.05
18581;DHT22;9420;50.876;7.012;2024-03-25T11:40:42;19.36;46.81
18581;DHT22;9420;50.876;7.012;2024-03-25T11:43:08;19.50;47.45
18581;DHT22;9420;50.876;7.012;2024-03-25T11:45:36;20.52;46.05
18581;DHT22;9420;50.876;7.012;2024-03-25T11:48:02;21.97;43.94
18581;DHT22;9420;50.876;7.012;2024-03-25T11:50:28;20.14;43.51
18581;DHT22;9420;50.876;7.012;2024-03-25T11:52:53;21.21;43.62
18581;DHT22;9420;50.876;7.012;2024-03-25T11:55:19;20.83;42.01
18581;DHT22;9420;50.876;7.012;2024-03-25T11:57:46;21.42;41.62
18581;DHT22;9420;50.876;7.012;2024-03-25T12:00:12;21.01;41.80
18581;DHT22;9420;50.876;7.012;2024-03-25T12:02:42;21.60;42.56
18581;DHT22;9420;50.876;7.012;2024-03-25T12:05:08;21.25;40.33
18581;DHT22;9420;50.876;7.012;2024-03-25T12:07:34;20.77;42.38
18581;DHT22;9420;50.876;7.012;2024-03-25T12:10:01;20.66;42.84
18581;DHT22;9420;50.876;7.012;2024-03-25T12:12:46;21.66;38.68
18581;DHT22;9420;50.876;7.012;2024-03-25T12:15:13;21.49;37.27
18581;DHT22;9420;50.876;7.012;2024-03-25T12:17:41;17.99;45.12
18581;DHT22;9420;50.876;7.012;2024-03-25T12:20:08;18.88;47.95
18581;DHT22;9420;50.876;7.012;2024-03-25T12:22:34;21.24;42.29
18581;DHT22;9420;50.876;7.012;2024-03-25T12:25:01;21.70;39.88
18581;DHT22;9420;50.876;7.012;2024-03-25T12:27:28;21.76;40.16
18581;DHT22;9420;50.876;7.012;2024-03-25T12:29:58;21.98;39.73
18581;DHT22;9420;50.876;7.012;2024-03-25T12:32:31;22.59;39.45
18581;DHT22;9420;50.876;7.012;2024-03-25T12:34:58;22.64;36.29
18581;DHT22;9420;50.876;7.012;2024-03-25T12:37:26;21.77;37.88
18581;DHT22;9420;50.876;7.012;2024-03-25T12:39:51;21.60;38.13
18581;DHT22;9420;50.876;7.012;2024-03-25T12:42:17;22.56;37.35
18581;DHT22;9420;50.876;7.012;2024-03-25T12:44:43;21.86;36.73
18581;DHT22;9420;50.876;7.012;2024-03-25T12:47:09;22.89;38.98
18581;DHT22;9420;50.876;7.012;2024-03-25T12:49:35;22.30;37.57
18581;DHT22;9420;50.876;7.012;2024-03-25T12:52:05;24.06;36.02
18581;DHT22;9420;50.876;7.012;2024-03-25T12:54:31;23.36;36.74
18581;DHT22;9420;50.876;7.012;2024-03-25T12:56:56;23.92;36.38
18581;DHT22;9420;50.876;7.012;2024-03-25T12:59:22;22.17;37.04
18581;DHT22;9420;50.876;7.012;2024-03-25T13:01:48;23.28;37.14
18581;DHT22;9420;50.876;7.012;2024-03-25T13:04:14;23.55;35.34
18581;DHT22;9420;50.876;7.012;2024-03-25T13:06:39;23.47;34.70
18581;DHT22;9420;50.876;7.012;2024-03-25T13:09:06;24.67;35.13
18581;DHT22;9420;50.876;7.012;2024-03-25T13:11:32;23.40;35.96
18581;DHT22;9420;50.876;7.012;2024-03-25T13:13:58;24.04;35.91
18581;DHT22;9420;50.876;7.012;2024-03-25T13:16:24;23.79;36.94
18581;DHT22;9420;50.876;7.012;2024-03-25T13:18:49;24.13;34.65
18581;DHT22;9420;50.876;7.012;2024-03-25T13:21:15;24.57;33.33
18581;DHT22;9420;50.876;7.012;2024-03-25T13:23:41;25.72;32.56
18581;DHT22;9420;50.876;7.012;2024-03-25T13:26:08;27.14;33.26
18581;DHT22;9420;50.876;7.012;2024-03-25T13:28:34;25.69;32.07
18581;DHT22;9420;50.876;7.012;2024-03-25T13:30:59;24.70;32.71
18581;DHT22;9420;50.876;7.012;2024-03-25T13:33:25;25.97;33.95
18581;DHT22;9420;50.876;7.012;2024-03-25T13:35:51;26.25;33.62
18581;DHT22;9420;50.876;7.012;2024-03-25T13:38:17;24.80;32.64
18581;DHT22;9420;50.876;7.012;2024-03-25T13:40:42;22.99;33.84
18581;DHT22;9420;50.876;7.012;2024-03-25T13:43:10;24.55;34.41
18581;DHT22;9420;50.876;7.012;2024-03-25T13:45:36;24.39;34.19
18581;DHT22;9420;50.876;7.012;2024-03-25T13:48:01;25.69;33.32
18581;DHT22;9420;50.876;7.012;2024-03-25T13:50:27;26.72;31.39
18581;DHT22;9420;50.876;7.012;2024-03-25T13:52:53;25.67;32.41
18581;DHT22;9420;50.876;7.012;2024-03-25T13:55:19;24.78;35.52
18581;DHT22;9420;50.876;7.012;2024-03-25T13:57:44;23.75;33.87
18581;DHT22;9420;50.876;7.012;2024-03-25T14:00:13;23.99;34.19
18581;DHT22;9420;50.876;7.012;2024-03-25T14:02:39;24.59;32.99
18581;DHT22;9420;50.876;7.012;2024-03-25T14:05:05;25.46;31.05
18581;DHT22;9420;50.876;7.012;2024-03-25T14:07:31;25.15;31.81
18581;DHT22;9420;50.876;7.012;2024-03-25T14:09:56;25.41;33.56
18581;DHT22;9420;50.876;7.012;2024-03-25T14:12:22;26.58;32.74
18581;DHT22;9420;50.876;7.012;2024-03-25T14:14:48;26.72;31.00
18581;DHT22;9420;50.876;7.012;2024-03-25T14:17:15;26.41;32.69
18581;DHT22;9420;50.876;7.012;2024-03-25T14:19:41;27.10;32.29
18581;DHT22;9420;50.876;7.012;2024-03-25T14:22:06;26.96;32.30
18581;DHT22;9420;50.876;7.012;2024-03-25T14:24:32;26.86;30.61
18581;DHT22;9420;50.876;7.012;2024-03-25T14:26:58;26.28;32.42
18581;DHT22;9420;50.876;7.012;2024-03-25T14:29:24;26.82;30.19
18581;DHT22;9420;50.876;7.012;2024-03-25T14:31:49;25.97;30.97
18581;DHT22;9420;50.876;7.012;2024-03-25T14:34:16;26.49;30.44
18581;DHT22;9420;50.876;7.012;2024-03-25T14:36:42;26.98;30.31
18581;DHT22;9420;50.876;7.012;2024-03-25T14:39:08;26.52;30.25
18581;DHT22;9420;50.876;7.012;2024-03-25T14:41:39;26.40;30.81
18581;DHT22;9420;50.876;7.012;2024-03-25T14:44:05;27.02;31.64
18581;DHT22;9420;50.876;7.012;2024-03-25T14:46:30;26.89;29.60
18581;DHT22;9420;50.876;7.012;2024-03-25T14:48:56;26.14;30.54
18581;DHT22;9420;50.876;7.012;2024-03-25T14:51:23;26.20;31.87
18581;DHT22;9420;50.876;7.012;2024-03-25T14:53:49;26.13;30.26
18581;DHT22;9420;50.876;7.012;2024-03-25T14:56:15;25.69;32.44
18581;DHT22;9420;50.876;7.012;2024-03-25T14:58:41;25.07;33.11
18581;DHT22;9420;50.876;7.012;2024-03-25T15:01:07;25.65;31.88
18581;DHT22;9420;50.876;7.012;2024-03-25T15:03:32;26.21;31.77
18581;DHT22;9420;50.876;7.012;2024-03-25T15:05:58;26.69;29.98
18581;DHT22;9420;50.876;7.012;2024-03-25T15:08:28;24.95;31.94
18581;DHT22;9420;50.876;7.012;2024-03-25T15:10:54;24.83;33.32
18581;DHT22;9420;50.876;7.012;2024-03-25T15:13:20;24.98;31.72
18581;DHT22;9420;50.876;7.012;2024-03-25T15:15:45;26.72;30.68
18581;DHT22;9420;50.876;7.012;2024-03-25T15:18:11;26.59;29.80
18581;DHT22;9420;50.876;7.012;2024-03-25T15:20:37;25.93;30.36
18581;DHT22;9420;50.876;7.012;2024-03-25T15:23:03;26.25;31.37
18581;DHT22;9420;50.876;7.012;2024-03-25T15:25:30;26.53;32.16
18581;DHT22;9420;50.876;7.012;2024-03-25T15:27:56;26.48;31.74
18581;DHT22;9420;50.876;7.012;2024-03-25T15:30:22;26.65;31.51
18581;DHT22;9420;50.876;7.012;2024-03-25T15:32:48;26.28;31.58
18581;DHT22;9420;50.876;7.012;2024-03-25T15:35:13;26.37;30.29
18581;DHT22;9420;50.876;7.012;2024-03-25T15:37:39;25.83;31.85
18581;DHT22;9420;50.876;7.012;2024-03-25T15:40:06;25.17;33.29
18581;DHT22;9420;50.876;7.012;2024-03-25T15:42:34;25.03;33.30
18581;DHT22;9420;50.876;7.012;2024-03-25T15:45:00;26.10;31.89
18581;DHT22;9420;50.876;7.012;2024-03-25T15:47:26;25.18;33.45
18581;DHT22;9420;50.876;7.012;2024-03-25T15:49:52;25.72;32.85